MiSS Stacie — WDF5915 — position and weather

sailwx.info

Track history (hours):
 
Tides and Currents Weather Stations Pressure Air Temp Water Temp Dewpoint Dewpoint Depression Visibility Wind Speed Wind Dir Waves Ship Positions

MiSS Stacie

Owner: Crosby Marine Transportation LLC, Golden Meadow, LA. More information available from US FCC via Universal Licensing System and Coast Guard Vessel Documentation Center.

Last reported at 2018-Feb-22 20:59 UTC. Time now 2018-Feb-24 10:13 UTC.
Position N 29°35' W 094°25'.

Length 20 m; draft 2 m.

Type: Tug. MMSI: 367468640.

Date/timePositionNaut miles runAvg speedWind from/ knotsBaromVisibWave heightAir tempDewpointWater temp
2018-Feb-22 20:59N 29°35' W 094°25'8 2.6
2018-Feb-22 17:45N 29°39' W 094°16'2 6.9
2018-Feb-22 17:29N 29°40' W 094°14'3 7.0
2018-Feb-22 17:00N 29°41' W 094°11'3 6.9
2018-Feb-22 16:30N 29°43' W 094°07'4 7.3
2018-Feb-22 16:00N 29°45' W 094°04'4 7.4
2018-Feb-22 15:30N 29°47' W 094°01'3 6.5
2018-Feb-22 15:00N 29°49' W 093°58'4 7.1
2018-Feb-22 14:30N 29°52' W 093°56'4 7.5
2018-Feb-22 14:00N 29°55' W 093°53'3 5.4
2018-Feb-22 13:30N 29°58' W 093°52'0 0.7
2018-Feb-22 12:59N 29°58' W 093°52'0 0.0
2018-Feb-22 12:29N 29°58' W 093°52'0 0.0
2018-Feb-22 11:56N 29°58' W 093°52'0 0.0
2018-Feb-22 11:29N 29°58' W 093°52'0 0.0
2018-Feb-22 10:59N 29°58' W 093°52'0 0.0
2018-Feb-22 10:29N 29°58' W 093°52'0 0.0
2018-Feb-22 09:59N 29°58' W 093°52'0 0.0
2018-Feb-22 09:29N 29°58' W 093°52'0 0.0
2018-Feb-22 08:59N 29°58' W 093°52'0 0.0
2018-Feb-22 08:29N 29°58' W 093°52'0 0.0
2018-Feb-22 07:59N 29°58' W 093°52'0 0.0
2018-Feb-22 07:29N 29°58' W 093°52'0 0.0
2018-Feb-22 06:59N 29°58' W 093°52'0 0.0
2018-Feb-22 06:29N 29°58' W 093°52'0 0.9
2018-Feb-22 06:00N 29°58' W 093°52'0 0.8
2018-Feb-22 05:30N 29°57' W 093°52'2 3.0
2018-Feb-22 05:00N 29°59' W 093°52'3 5.0
2018-Feb-22 04:30N 29°59' W 093°55'1 2.7
2018-Feb-22 03:57N 29°60' W 093°57'0 0.0
2018-Feb-22 03:30N 29°60' W 093°57'0 0.0
2018-Feb-22 03:00N 29°60' W 093°57'0 0.0
2018-Feb-22 02:30N 29°60' W 093°57'0 0.0
2018-Feb-22 02:00N 29°60' W 093°57'0 0.0
2018-Feb-22 01:30N 29°60' W 093°57'0 0.0
2018-Feb-22 01:00N 29°60' W 093°57'0 0.0
2018-Feb-22 00:30N 29°60' W 093°57'0 0.0
2018-Feb-21 23:58N 29°60' W 093°57'0 0.0
2018-Feb-21 23:28N 29°60' W 093°57'0 0.0
2018-Feb-21 22:58N 29°60' W 093°57'0 0.0
2018-Feb-21 22:28N 29°60' W 093°57'0 0.0
2018-Feb-21 21:58N 29°60' W 093°57'0 0.2
2018-Feb-21 21:29N 29°60' W 093°57'0 0.0
2018-Feb-21 20:59N 29°60' W 093°57'0 0.0
2018-Feb-21 20:29N 29°60' W 093°57'0 0.0
2018-Feb-21 19:59N 29°60' W 093°57'0 0.0
2018-Feb-21 19:29N 29°60' W 093°57'0 0.0
2018-Feb-21 18:59N 29°60' W 093°57'0 0.0
2018-Feb-21 18:29N 29°60' W 093°57'0 0.0
2018-Feb-21 17:59N 29°60' W 093°57'0 0.0
2018-Feb-21 17:29N 29°60' W 093°57'0 0.0
2018-Feb-21 16:59N 29°60' W 093°57'0 0.0
2018-Feb-21 16:29N 29°60' W 093°57'0 0.0
2018-Feb-21 15:59N 29°60' W 093°57'0 0.0
2018-Feb-21 15:29N 29°60' W 093°57'0 0.0
2018-Feb-21 14:59N 29°60' W 093°57'2 4.7
2018-Feb-21 14:30N 29°59' W 093°54'3 5.1
2018-Feb-21 14:00N 29°58' W 093°51'0 0.1
2018-Feb-21 13:29N 29°58' W 093°51'0 0.0
2018-Feb-21 12:59N 29°58' W 093°51'0 0.0
2018-Feb-21 12:29N 29°58' W 093°51'0 0.0
2018-Feb-21 11:59N 29°58' W 093°51'2 5.1
2018-Feb-21 11:30N 29°59' W 093°54'2 4.7
2018-Feb-21 11:00N 29°60' W 093°57'0 0.0
2018-Feb-21 10:30N 29°60' W 093°57'0 0.0
2018-Feb-21 10:00N 29°60' W 093°57'0 0.0
2018-Feb-21 09:30N 29°60' W 093°57'0 0.0
2018-Feb-21 09:00N 29°60' W 093°57'0 0.0
2018-Feb-21 08:27N 29°60' W 093°57'0 0.0
2018-Feb-21 08:00N 29°60' W 093°57'0 0.0
2018-Feb-21 07:30N 29°60' W 093°57'0 0.0
2018-Feb-21 07:00N 29°60' W 093°57'0 0.0
2018-Feb-21 06:30N 29°60' W 093°57'1 1.9
2018-Feb-21 06:00N 29°59' W 093°55'4 7.5
2018-Feb-21 05:30N 29°58' W 093°51'1 2.0
2018-Feb-21 05:00N 29°57' W 093°52'0 1.0
2018-Feb-21 04:29N 29°58' W 093°52'1 1.2
2018-Feb-21 03:58N 29°57' W 093°52'2 3.9
2018-Feb-21 03:30N 29°55' W 093°53'3 5.5
2018-Feb-21 03:00N 29°53' W 093°55'3 5.4
2018-Feb-21 02:30N 29°51' W 093°57'2 4.9
2018-Feb-21 02:00N 29°49' W 093°58'2 3.8
2018-Feb-21 01:30N 29°48' W 094°00'2 4.2
2018-Feb-21 01:00N 29°47' W 094°02'2 4.3
2018-Feb-21 00:30N 29°45' W 094°04'2 4.3
2018-Feb-21 00:00N 29°44' W 094°06'2 4.3
2018-Feb-20 23:30N 29°43' W 094°08'2 4.4
2018-Feb-20 23:00N 29°41' W 094°10'2 4.4
2018-Feb-20 22:30N 29°41' W 094°12'2 4.6
2018-Feb-20 22:00N 29°40' W 094°15'2 3.4
2018-Feb-20 21:28N 29°39' W 094°16'6 4.4
2018-Feb-20 20:01N 29°36' W 094°23'0 4.2
2018-Feb-20 19:57N 29°36' W 094°23'3 3.6
2018-Feb-20 19:09N 29°34' W 094°26'1 4.2
2018-Feb-20 18:57N 29°34' W 094°27'6 0.5
2018-Feb-20 07:05N 29°30' W 094°33'0 0.0
2018-Feb-20 06:56N 29°30' W 094°33'23 1.8
2018-Feb-19 18:01N 29°17' W 094°54'0 3.1
2018-Feb-19 18:00N 29°17' W 094°54'3 4.3
2018-Feb-19 17:22N 29°17' W 094°57'48 4.4
2018-Feb-19 06:23N 28°46' W 095°39'48 1.9
2018-Feb-18 04:36N 28°39' W 096°33'0 0.0
2018-Feb-18 04:24N 28°39' W 096°33'65 1.4
2018-Feb-16 04:43N 28°55' W 095°21'0 0.0
2018-Feb-16 04:28N 28°55' W 095°21'0 0.0
2018-Feb-16 03:58N 28°55' W 095°21'13 2.1
2018-Feb-15 22:01N 29°05' W 095°12'0 4.9
2018-Feb-15 21:55N 29°06' W 095°12'31 2.6
2018-Feb-15 10:03N 29°25' W 094°44'0 0.1
2018-Feb-15 09:59N 29°25' W 094°44'0 0.0
2018-Feb-15 09:05N 29°25' W 094°44'0 0.0
2018-Feb-15 08:53N 29°25' W 094°44'0 0.0
2018-Feb-15 08:26N 29°25' W 094°44'0 0.0
2018-Feb-15 07:59N 29°25' W 094°44'0 0.0
2018-Feb-15 07:29N 29°25' W 094°44'0 0.0
2018-Feb-15 05:35N 29°25' W 094°44'0 0.0
2018-Feb-15 05:23N 29°25' W 094°44'0 0.0
2018-Feb-15 04:59N 29°25' W 094°44'0 0.0
2018-Feb-15 04:26N 29°25' W 094°44'0 0.0
2018-Feb-15 03:44N 29°25' W 094°44'0 0.0
2018-Feb-15 03:26N 29°25' W 094°44'0 0.1
2018-Feb-15 02:47N 29°25' W 094°44'4 2.3
2018-Feb-15 01:06N 29°22' W 094°48'7 3.5
2018-Feb-14 23:12N 29°28' W 094°51'2 3.5
2018-Feb-14 22:42N 29°30' W 094°52'3 6.2
2018-Feb-14 22:15N 29°32' W 094°54'2 6.8
2018-Feb-14 22:00N 29°33' W 094°55'3 6.9
2018-Feb-14 21:30N 29°36' W 094°57'4 7.2
2018-Feb-14 20:55N 29°40' W 094°59'3 7.3
2018-Feb-14 20:28N 29°43' W 095°01'0 0.0
2018-Feb-13 10:51N 29°42' W 095°01'2 6.6
2018-Feb-13 10:30N 29°41' W 094°59'4 7.3
2018-Feb-13 10:00N 29°38' W 094°58'41 4.2
2018-Feb-13 00:25N 29°41' W 094°11'2 4.7
2018-Feb-13 00:01N 29°42' W 094°09'3 6.9
2018-Feb-12 23:30N 29°44' W 094°06'4 7.2
2018-Feb-12 23:00N 29°46' W 094°03'4 7.1
2018-Feb-12 22:30N 29°49' W 093°60'3 6.0
2018-Feb-12 22:00N 29°51' W 093°57'3 6.1
2018-Feb-12 21:30N 29°53' W 093°55'3 6.5
2018-Feb-12 21:00N 29°56' W 093°53'  
Track history (hours):
 
Tides and Currents Weather Stations Pressure Air Temp Water Temp Dewpoint Dewpoint Depression Visibility Wind Speed Wind Dir Waves Ship Positions

MiSS Stacie

Owner: Crosby Marine Transportation LLC, Golden Meadow, LA. More information available from US FCC via Universal Licensing System and Coast Guard Vessel Documentation Center.

Last reported at 2018-Feb-22 20:59 UTC. Time now 2018-Feb-24 10:13 UTC.
Position N 29°35' W 094°25'.

Length 20 m; draft 2 m.

Type: Tug. MMSI: 367468640.

Date/timePositionNaut miles runAvg speedWind from/ knotsBaromVisibWave heightAir tempDewpointWater temp
2018-Feb-22 20:59N 29°35' W 094°25'8 2.6
2018-Feb-22 17:45N 29°39' W 094°16'2 6.9
2018-Feb-22 17:29N 29°40' W 094°14'3 7.0
2018-Feb-22 17:00N 29°41' W 094°11'3 6.9
2018-Feb-22 16:30N 29°43' W 094°07'4 7.3
2018-Feb-22 16:00N 29°45' W 094°04'4 7.4
2018-Feb-22 15:30N 29°47' W 094°01'3 6.5
2018-Feb-22 15:00N 29°49' W 093°58'4 7.1
2018-Feb-22 14:30N 29°52' W 093°56'4 7.5
2018-Feb-22 14:00N 29°55' W 093°53'3 5.4
2018-Feb-22 13:30N 29°58' W 093°52'0 0.7
2018-Feb-22 12:59N 29°58' W 093°52'0 0.0
2018-Feb-22 12:29N 29°58' W 093°52'0 0.0
2018-Feb-22 11:56N 29°58' W 093°52'0 0.0
2018-Feb-22 11:29N 29°58' W 093°52'0 0.0
2018-Feb-22 10:59N 29°58' W 093°52'0 0.0
2018-Feb-22 10:29N 29°58' W 093°52'0 0.0
2018-Feb-22 09:59N 29°58' W 093°52'0 0.0
2018-Feb-22 09:29N 29°58' W 093°52'0 0.0
2018-Feb-22 08:59N 29°58' W 093°52'0 0.0
2018-Feb-22 08:29N 29°58' W 093°52'0 0.0
2018-Feb-22 07:59N 29°58' W 093°52'0 0.0
2018-Feb-22 07:29N 29°58' W 093°52'0 0.0
2018-Feb-22 06:59N 29°58' W 093°52'0 0.0
2018-Feb-22 06:29N 29°58' W 093°52'0 0.9
2018-Feb-22 06:00N 29°58' W 093°52'0 0.8
2018-Feb-22 05:30N 29°57' W 093°52'2 3.0
2018-Feb-22 05:00N 29°59' W 093°52'3 5.0
2018-Feb-22 04:30N 29°59' W 093°55'1 2.7
2018-Feb-22 03:57N 29°60' W 093°57'0 0.0
2018-Feb-22 03:30N 29°60' W 093°57'0 0.0
2018-Feb-22 03:00N 29°60' W 093°57'0 0.0
2018-Feb-22 02:30N 29°60' W 093°57'0 0.0
2018-Feb-22 02:00N 29°60' W 093°57'0 0.0
2018-Feb-22 01:30N 29°60' W 093°57'0 0.0
2018-Feb-22 01:00N 29°60' W 093°57'0 0.0
2018-Feb-22 00:30N 29°60' W 093°57'0 0.0
2018-Feb-21 23:58N 29°60' W 093°57'0 0.0
2018-Feb-21 23:28N 29°60' W 093°57'0 0.0
2018-Feb-21 22:58N 29°60' W 093°57'0 0.0
2018-Feb-21 22:28N 29°60' W 093°57'0 0.0
2018-Feb-21 21:58N 29°60' W 093°57'0 0.2
2018-Feb-21 21:29N 29°60' W 093°57'0 0.0
2018-Feb-21 20:59N 29°60' W 093°57'0 0.0
2018-Feb-21 20:29N 29°60' W 093°57'0 0.0
2018-Feb-21 19:59N 29°60' W 093°57'0 0.0
2018-Feb-21 19:29N 29°60' W 093°57'0 0.0
2018-Feb-21 18:59N 29°60' W 093°57'0 0.0
2018-Feb-21 18:29N 29°60' W 093°57'0 0.0
2018-Feb-21 17:59N 29°60' W 093°57'0 0.0
2018-Feb-21 17:29N 29°60' W 093°57'0 0.0
2018-Feb-21 16:59N 29°60' W 093°57'0 0.0
2018-Feb-21 16:29N 29°60' W 093°57'0 0.0
2018-Feb-21 15:59N 29°60' W 093°57'0 0.0
2018-Feb-21 15:29N 29°60' W 093°57'0 0.0
2018-Feb-21 14:59N 29°60' W 093°57'2 4.7
2018-Feb-21 14:30N 29°59' W 093°54'3 5.1
2018-Feb-21 14:00N 29°58' W 093°51'0 0.1
2018-Feb-21 13:29N 29°58' W 093°51'0 0.0
2018-Feb-21 12:59N 29°58' W 093°51'0 0.0
2018-Feb-21 12:29N 29°58' W 093°51'0 0.0
2018-Feb-21 11:59N 29°58' W 093°51'2 5.1
2018-Feb-21 11:30N 29°59' W 093°54'2 4.7
2018-Feb-21 11:00N 29°60' W 093°57'0 0.0
2018-Feb-21 10:30N 29°60' W 093°57'0 0.0
2018-Feb-21 10:00N 29°60' W 093°57'0 0.0
2018-Feb-21 09:30N 29°60' W 093°57'0 0.0
2018-Feb-21 09:00N 29°60' W 093°57'0 0.0
2018-Feb-21 08:27N 29°60' W 093°57'0 0.0
2018-Feb-21 08:00N 29°60' W 093°57'0 0.0
2018-Feb-21 07:30N 29°60' W 093°57'0 0.0
2018-Feb-21 07:00N 29°60' W 093°57'0 0.0
2018-Feb-21 06:30N 29°60' W 093°57'1 1.9
2018-Feb-21 06:00N 29°59' W 093°55'4 7.5
2018-Feb-21 05:30N 29°58' W 093°51'1 2.0
2018-Feb-21 05:00N 29°57' W 093°52'0 1.0
2018-Feb-21 04:29N 29°58' W 093°52'1 1.2
2018-Feb-21 03:58N 29°57' W 093°52'2 3.9
2018-Feb-21 03:30N 29°55' W 093°53'3 5.5
2018-Feb-21 03:00N 29°53' W 093°55'3 5.4
2018-Feb-21 02:30N 29°51' W 093°57'2 4.9
2018-Feb-21 02:00N 29°49' W 093°58'2 3.8
2018-Feb-21 01:30N 29°48' W 094°00'2 4.2
2018-Feb-21 01:00N 29°47' W 094°02'2 4.3
2018-Feb-21 00:30N 29°45' W 094°04'2 4.3
2018-Feb-21 00:00N 29°44' W 094°06'2 4.3
2018-Feb-20 23:30N 29°43' W 094°08'2 4.4
2018-Feb-20 23:00N 29°41' W 094°10'2 4.4
2018-Feb-20 22:30N 29°41' W 094°12'2 4.6
2018-Feb-20 22:00N 29°40' W 094°15'2 3.4
2018-Feb-20 21:28N 29°39' W 094°16'6 4.4
2018-Feb-20 20:01N 29°36' W 094°23'0 4.2
2018-Feb-20 19:57N 29°36' W 094°23'3 3.6
2018-Feb-20 19:09N 29°34' W 094°26'1 4.2
2018-Feb-20 18:57N 29°34' W 094°27'6 0.5
2018-Feb-20 07:05N 29°30' W 094°33'0 0.0
2018-Feb-20 06:56N 29°30' W 094°33'23 1.8
2018-Feb-19 18:01N 29°17' W 094°54'0 3.1
2018-Feb-19 18:00N 29°17' W 094°54'3 4.3
2018-Feb-19 17:22N 29°17' W 094°57'48 4.4
2018-Feb-19 06:23N 28°46' W 095°39'48 1.9
2018-Feb-18 04:36N 28°39' W 096°33'0 0.0
2018-Feb-18 04:24N 28°39' W 096°33'65 1.4
2018-Feb-16 04:43N 28°55' W 095°21'0 0.0
2018-Feb-16 04:28N 28°55' W 095°21'0 0.0
2018-Feb-16 03:58N 28°55' W 095°21'13 2.1
2018-Feb-15 22:01N 29°05' W 095°12'0 4.9
2018-Feb-15 21:55N 29°06' W 095°12'31 2.6
2018-Feb-15 10:03N 29°25' W 094°44'0 0.1
2018-Feb-15 09:59N 29°25' W 094°44'0 0.0
2018-Feb-15 09:05N 29°25' W 094°44'0 0.0
2018-Feb-15 08:53N 29°25' W 094°44'0 0.0
2018-Feb-15 08:26N 29°25' W 094°44'0 0.0
2018-Feb-15 07:59N 29°25' W 094°44'0 0.0
2018-Feb-15 07:29N 29°25' W 094°44'0 0.0
2018-Feb-15 05:35N 29°25' W 094°44'0 0.0
2018-Feb-15 05:23N 29°25' W 094°44'0 0.0
2018-Feb-15 04:59N 29°25' W 094°44'0 0.0
2018-Feb-15 04:26N 29°25' W 094°44'0 0.0
2018-Feb-15 03:44N 29°25' W 094°44'0 0.0
2018-Feb-15 03:26N 29°25' W 094°44'0 0.1
2018-Feb-15 02:47N 29°25' W 094°44'4 2.3
2018-Feb-15 01:06N 29°22' W 094°48'7 3.5
2018-Feb-14 23:12N 29°28' W 094°51'2 3.5
2018-Feb-14 22:42N 29°30' W 094°52'3 6.2
2018-Feb-14 22:15N 29°32' W 094°54'2 6.8
2018-Feb-14 22:00N 29°33' W 094°55'3 6.9
2018-Feb-14 21:30N 29°36' W 094°57'4 7.2
2018-Feb-14 20:55N 29°40' W 094°59'3 7.3
2018-Feb-14 20:28N 29°43' W 095°01'0 0.0
2018-Feb-13 10:51N 29°42' W 095°01'2 6.6
2018-Feb-13 10:30N 29°41' W 094°59'4 7.3
2018-Feb-13 10:00N 29°38' W 094°58'41 4.2
2018-Feb-13 00:25N 29°41' W 094°11'2 4.7
2018-Feb-13 00:01N 29°42' W 094°09'3 6.9
2018-Feb-12 23:30N 29°44' W 094°06'4 7.2
2018-Feb-12 23:00N 29°46' W 094°03'4 7.1
2018-Feb-12 22:30N 29°49' W 093°60'3 6.0
2018-Feb-12 22:00N 29°51' W 093°57'3 6.1
2018-Feb-12 21:30N 29°53' W 093°55'3 6.5
2018-Feb-12 21:00N 29°56' W 093°53'  

Dump ship's entire track history